sensor_id;sensor_type;location;lat;lon;timestamp;P1;durP1;ratioP1;P2;durP2;ratioP2
51006;SDS011;37034;47.886;-3.904;2022-09-01T00:01:56;17.85;;;5.22;;
51006;SDS011;37034;47.886;-3.904;2022-09-01T00:04:23;15.48;;;4.95;;
51006;SDS011;37034;47.886;-3.904;2022-09-01T00:06:51;16.00;;;5.15;;
51006;SDS011;37034;47.886;-3.904;2022-09-01T00:09:19;15.35;;;5.35;;
51006;SDS011;37034;47.886;-3.904;2022-09-01T00:11:47;18.83;;;5.38;;
51006;SDS011;37034;47.886;-3.904;2022-09-01T00:14:17;18.55;;;5.53;;
51006;SDS011;37034;47.886;-3.904;2022-09-01T00:16:47;18.27;;;5.97;;
51006;SDS011;37034;47.886;-3.904;2022-09-01T00:19:12;15.73;;;5.80;;
51006;SDS011;37034;47.886;-3.904;2022-09-01T00:21:40;17.65;;;4.78;;
51006;SDS011;37034;47.886;-3.904;2022-09-01T00:24:09;12.80;;;4.95;;
51006;SDS011;37034;47.886;-3.904;2022-09-01T00:26:36;15.25;;;4.97;;
51006;SDS011;37034;47.886;-3.904;2022-09-01T00:29:03;15.43;;;4.60;;
51006;SDS011;37034;47.886;-3.904;2022-09-01T00:31:29;15.20;;;5.10;;
51006;SDS011;37034;47.886;-3.904;2022-09-01T00:33:55;14.02;;;4.63;;
51006;SDS011;37034;47.886;-3.904;2022-09-01T00:36:21;13.90;;;4.45;;
51006;SDS011;37034;47.886;-3.904;2022-09-01T00:38:47;19.25;;;5.00;;
51006;SDS011;37034;47.886;-3.904;2022-09-01T00:41:14;13.65;;;4.68;;
51006;SDS011;37034;47.886;-3.904;2022-09-01T00:43:50;12.98;;;4.60;;
51006;SDS011;37034;47.886;-3.904;2022-09-01T00:46:19;15.43;;;5.32;;
51006;SDS011;37034;47.886;-3.904;2022-09-01T00:49:00;15.10;;;4.97;;
51006;SDS011;37034;47.886;-3.904;2022-09-01T00:51:27;13.68;;;4.40;;
51006;SDS011;37034;47.886;-3.904;2022-09-01T00:53:54;14.48;;;4.63;;
51006;SDS011;37034;47.886;-3.904;2022-09-01T00:56:22;17.80;;;5.45;;
51006;SDS011;37034;47.886;-3.904;2022-09-01T00:58:49;14.88;;;4.75;;
51006;SDS011;37034;47.886;-3.904;2022-09-01T01:01:16;15.00;;;4.82;;
51006;SDS011;37034;47.886;-3.904;2022-09-01T01:03:43;13.32;;;4.95;;
51006;SDS011;37034;47.886;-3.904;2022-09-01T01:06:11;14.20;;;4.75;;
51006;SDS011;37034;47.886;-3.904;2022-09-01T01:08:41;15.57;;;4.80;;
51006;SDS011;37034;47.886;-3.904;2022-09-01T01:11:23;15.65;;;5.30;;
51006;SDS011;37034;47.886;-3.904;2022-09-01T01:13:59;13.73;;;4.60;;
51006;SDS011;37034;47.886;-3.904;2022-09-01T01:16:37;19.05;;;4.72;;
51006;SDS011;37034;47.886;-3.904;2022-09-01T01:19:09;12.52;;;4.70;;
51006;SDS011;37034;47.886;-3.904;2022-09-01T01:25:17;15.45;;;4.63;;
51006;SDS011;37034;47.886;-3.904;2022-09-01T01:27:46;15.18;;;5.45;;
51006;SDS011;37034;47.886;-3.904;2022-09-01T01:30:12;18.17;;;4.88;;
51006;SDS011;37034;47.886;-3.904;2022-09-01T01:32:40;13.02;;;4.50;;
51006;SDS011;37034;47.886;-3.904;2022-09-01T01:35:07;13.90;;;4.93;;
51006;SDS011;37034;47.886;-3.904;2022-09-01T01:37:39;13.43;;;4.40;;
51006;SDS011;37034;47.886;-3.904;2022-09-01T01:40:11;13.60;;;4.93;;
51006;SDS011;37034;47.886;-3.904;2022-09-01T01:42:42;18.65;;;5.10;;
51006;SDS011;37034;47.886;-3.904;2022-09-01T01:45:12;13.52;;;5.03;;
51006;SDS011;37034;47.886;-3.904;2022-09-01T01:47:41;14.73;;;5.63;;
51006;SDS011;37034;47.886;-3.904;2022-09-01T01:50:11;14.82;;;4.90;;
51006;SDS011;37034;47.886;-3.904;2022-09-01T01:52:39;13.80;;;5.75;;
51006;SDS011;37034;47.886;-3.904;2022-09-01T01:55:07;13.70;;;4.80;;
51006;SDS011;37034;47.886;-3.904;2022-09-01T01:57:37;18.98;;;6.28;;
51006;SDS011;37034;47.886;-3.904;2022-09-01T02:00:14;13.27;;;5.10;;
51006;SDS011;37034;47.886;-3.904;2022-09-01T02:02:45;13.20;;;4.80;;
51006;SDS011;37034;47.886;-3.904;2022-09-01T02:05:16;14.82;;;5.18;;
51006;SDS011;37034;47.886;-3.904;2022-09-01T02:07:49;14.52;;;5.20;;
51006;SDS011;37034;47.886;-3.904;2022-09-01T02:10:16;16.70;;;4.88;;
51006;SDS011;37034;47.886;-3.904;2022-09-01T02:12:42;14.77;;;5.05;;
51006;SDS011;37034;47.886;-3.904;2022-09-01T02:15:07;15.02;;;4.68;;
51006;SDS011;37034;47.886;-3.904;2022-09-01T02:17:36;16.02;;;4.70;;
51006;SDS011;37034;47.886;-3.904;2022-09-01T02:20:04;16.10;;;5.20;;
51006;SDS011;37034;47.886;-3.904;2022-09-01T02:22:30;14.32;;;4.75;;
51006;SDS011;37034;47.886;-3.904;2022-09-01T02:24:57;16.00;;;4.70;;
51006;SDS011;37034;47.886;-3.904;2022-09-01T02:27:25;15.18;;;4.63;;
51006;SDS011;37034;47.886;-3.904;2022-09-01T02:29:53;15.05;;;5.25;;
51006;SDS011;37034;47.886;-3.904;2022-09-01T02:32:19;17.17;;;4.45;;
51006;SDS011;37034;47.886;-3.904;2022-09-01T02:34:48;15.68;;;5.22;;
51006;SDS011;37034;47.886;-3.904;2022-09-01T02:37:21;11.55;;;4.63;;
51006;SDS011;37034;47.886;-3.904;2022-09-01T02:39:49;15.70;;;5.07;;
51006;SDS011;37034;47.886;-3.904;2022-09-01T02:42:20;13.45;;;4.95;;
51006;SDS011;37034;47.886;-3.904;2022-09-01T02:44:51;15.35;;;5.18;;
51006;SDS011;37034;47.886;-3.904;2022-09-01T02:47:17;11.90;;;4.63;;
51006;SDS011;37034;47.886;-3.904;2022-09-01T02:49:43;15.02;;;5.35;;
51006;SDS011;37034;47.886;-3.904;2022-09-01T02:52:10;15.93;;;4.60;;
51006;SDS011;37034;47.886;-3.904;2022-09-01T02:54:39;13.57;;;4.88;;
51006;SDS011;37034;47.886;-3.904;2022-09-01T02:57:10;11.23;;;4.88;;
51006;SDS011;37034;47.886;-3.904;2022-09-01T02:59:36;18.48;;;4.80;;
51006;SDS011;37034;47.886;-3.904;2022-09-01T03:02:02;13.05;;;4.75;;
51006;SDS011;37034;47.886;-3.904;2022-09-01T03:04:29;14.00;;;4.88;;
51006;SDS011;37034;47.886;-3.904;2022-09-01T03:06:57;12.30;;;4.70;;
51006;SDS011;37034;47.886;-3.904;2022-09-01T03:09:23;13.27;;;4.50;;
51006;SDS011;37034;47.886;-3.904;2022-09-01T03:11:50;16.42;;;5.10;;
51006;SDS011;37034;47.886;-3.904;2022-09-01T03:14:17;16.10;;;4.72;;
51006;SDS011;37034;47.886;-3.904;2022-09-01T03:16:44;9.73;;;4.10;;
51006;SDS011;37034;47.886;-3.904;2022-09-01T03:19:10;16.23;;;5.45;;
51006;SDS011;37034;47.886;-3.904;2022-09-01T03:21:40;15.95;;;5.50;;
51006;SDS011;37034;47.886;-3.904;2022-09-01T03:24:08;13.13;;;5.75;;
51006;SDS011;37034;47.886;-3.904;2022-09-01T03:26:36;23.08;;;5.85;;
51006;SDS011;37034;47.886;-3.904;2022-09-01T03:29:03;19.85;;;5.00;;
51006;SDS011;37034;47.886;-3.904;2022-09-01T03:31:29;12.32;;;4.68;;
51006;SDS011;37034;47.886;-3.904;2022-09-01T03:33:55;12.52;;;4.57;;
51006;SDS011;37034;47.886;-3.904;2022-09-01T03:36:21;15.32;;;4.75;;
51006;SDS011;37034;47.886;-3.904;2022-09-01T03:38:55;12.70;;;4.80;;
51006;SDS011;37034;47.886;-3.904;2022-09-01T03:41:22;17.08;;;5.00;;
51006;SDS011;37034;47.886;-3.904;2022-09-01T03:43:49;11.57;;;4.20;;
51006;SDS011;37034;47.886;-3.904;2022-09-01T03:46:19;14.40;;;4.82;;
51006;SDS011;37034;47.886;-3.904;2022-09-01T03:48:49;13.13;;;4.68;;
51006;SDS011;37034;47.886;-3.904;2022-09-01T03:51:19;14.80;;;5.50;;
51006;SDS011;37034;47.886;-3.904;2022-09-01T03:53:46;14.15;;;5.47;;
51006;SDS011;37034;47.886;-3.904;2022-09-01T03:56:13;15.20;;;4.82;;
51006;SDS011;37034;47.886;-3.904;2022-09-01T03:58:39;12.23;;;4.75;;
51006;SDS011;37034;47.886;-3.904;2022-09-01T04:01:11;15.95;;;5.30;;
51006;SDS011;37034;47.886;-3.904;2022-09-01T04:03:38;15.13;;;5.00;;
51006;SDS011;37034;47.886;-3.904;2022-09-01T04:06:06;15.60;;;5.85;;
51006;SDS011;37034;47.886;-3.904;2022-09-01T04:08:33;15.13;;;5.32;;
51006;SDS011;37034;47.886;-3.904;2022-09-01T04:11:00;12.13;;;5.88;;
51006;SDS011;37034;47.886;-3.904;2022-09-01T04:13:30;16.10;;;5.15;;
51006;SDS011;37034;47.886;-3.904;2022-09-01T04:16:01;16.30;;;4.78;;
51006;SDS011;37034;47.886;-3.904;2022-09-01T04:18:27;12.82;;;4.63;;
51006;SDS011;37034;47.886;-3.904;2022-09-01T04:20:55;15.98;;;5.30;;
51006;SDS011;37034;47.886;-3.904;2022-09-01T04:23:26;11.50;;;5.22;;
51006;SDS011;37034;47.886;-3.904;2022-09-01T04:25:58;14.45;;;5.63;;
51006;SDS011;37034;47.886;-3.904;2022-09-01T04:28:33;16.92;;;5.82;;
51006;SDS011;37034;47.886;-3.904;2022-09-01T04:31:10;15.90;;;5.50;;
51006;SDS011;37034;47.886;-3.904;2022-09-01T04:33:39;19.60;;;5.82;;
51006;SDS011;37034;47.886;-3.904;2022-09-01T04:38:37;16.00;;;5.20;;
51006;SDS011;37034;47.886;-3.904;2022-09-01T04:41:04;15.50;;;5.65;;
51006;SDS011;37034;47.886;-3.904;2022-09-01T04:43:30;10.75;;;4.95;;
51006;SDS011;37034;47.886;-3.904;2022-09-01T04:45:57;20.58;;;6.30;;
51006;SDS011;37034;47.886;-3.904;2022-09-01T04:48:23;15.30;;;5.82;;
51006;SDS011;37034;47.886;-3.904;2022-09-01T04:50:50;20.17;;;6.60;;
51006;SDS011;37034;47.886;-3.904;2022-09-01T04:53:17;12.88;;;5.50;;
51006;SDS011;37034;47.886;-3.904;2022-09-01T04:55:44;12.93;;;5.63;;
51006;SDS011;37034;47.886;-3.904;2022-09-01T04:58:12;14.35;;;5.40;;
51006;SDS011;37034;47.886;-3.904;2022-09-01T05:00:41;11.40;;;5.72;;
51006;SDS011;37034;47.886;-3.904;2022-09-01T05:03:09;14.05;;;5.20;;
51006;SDS011;37034;47.886;-3.904;2022-09-01T05:05:42;15.98;;;5.65;;
51006;SDS011;37034;47.886;-3.904;2022-09-01T05:08:09;21.15;;;5.78;;
51006;SDS011;37034;47.886;-3.904;2022-09-01T05:10:43;13.77;;;6.30;;
51006;SDS011;37034;47.886;-3.904;2022-09-01T05:13:12;15.73;;;5.32;;
51006;SDS011;37034;47.886;-3.904;2022-09-01T05:15:41;12.10;;;5.45;;
51006;SDS011;37034;47.886;-3.904;2022-09-01T05:18:19;13.43;;;5.68;;
51006;SDS011;37034;47.886;-3.904;2022-09-01T05:20:49;15.02;;;6.00;;
51006;SDS011;37034;47.886;-3.904;2022-09-01T05:23:16;13.38;;;6.22;;
51006;SDS011;37034;47.886;-3.904;2022-09-01T05:25:44;10.32;;;5.70;;
51006;SDS011;37034;47.886;-3.904;2022-09-01T05:28:13;11.95;;;5.40;;
51006;SDS011;37034;47.886;-3.904;2022-09-01T05:30:42;16.20;;;6.30;;
51006;SDS011;37034;47.886;-3.904;2022-09-01T05:33:10;13.52;;;5.95;;
51006;SDS011;37034;47.886;-3.904;2022-09-01T05:35:39;15.73;;;6.63;;
51006;SDS011;37034;47.886;-3.904;2022-09-01T05:38:07;12.85;;;6.07;;
51006;SDS011;37034;47.886;-3.904;2022-09-01T05:40:37;13.15;;;6.13;;
51006;SDS011;37034;47.886;-3.904;2022-09-01T05:43:08;15.45;;;5.95;;
51006;SDS011;37034;47.886;-3.904;2022-09-01T05:45:36;13.60;;;6.68;;
51006;SDS011;37034;47.886;-3.904;2022-09-01T05:48:08;12.23;;;6.38;;
51006;SDS011;37034;47.886;-3.904;2022-09-01T05:50:44;12.75;;;5.75;;
51006;SDS011;37034;47.886;-3.904;2022-09-01T05:55:44;16.42;;;7.10;;
51006;SDS011;37034;47.886;-3.904;2022-09-01T05:58:11;13.57;;;6.90;;
51006;SDS011;37034;47.886;-3.904;2022-09-01T06:00:42;14.98;;;6.47;;
51006;SDS011;37034;47.886;-3.904;2022-09-01T06:03:09;19.35;;;7.22;;
51006;SDS011;37034;47.886;-3.904;2022-09-01T06:05:35;15.43;;;6.85;;
51006;SDS011;37034;47.886;-3.904;2022-09-01T06:12:56;11.07;;;6.57;;
51006;SDS011;37034;47.886;-3.904;2022-09-01T06:15:25;15.48;;;6.95;;
51006;SDS011;37034;47.886;-3.904;2022-09-01T06:17:53;16.17;;;6.82;;
51006;SDS011;37034;47.886;-3.904;2022-09-01T06:20:19;11.52;;;6.65;;
51006;SDS011;37034;47.886;-3.904;2022-09-01T06:22:46;17.48;;;6.50;;
51006;SDS011;37034;47.886;-3.904;2022-09-01T06:25:13;15.25;;;7.32;;
51006;SDS011;37034;47.886;-3.904;2022-09-01T06:27:41;19.52;;;7.05;;
51006;SDS011;37034;47.886;-3.904;2022-09-01T06:30:08;15.82;;;7.35;;
51006;SDS011;37034;47.886;-3.904;2022-09-01T06:32:43;16.92;;;7.30;;
51006;SDS011;37034;47.886;-3.904;2022-09-01T06:35:12;15.13;;;7.07;;
51006;SDS011;37034;47.886;-3.904;2022-09-01T06:37:42;12.95;;;7.05;;
51006;SDS011;37034;47.886;-3.904;2022-09-01T06:40:10;11.70;;;7.13;;
51006;SDS011;37034;47.886;-3.904;2022-09-01T06:42:49;11.80;;;6.93;;
51006;SDS011;37034;47.886;-3.904;2022-09-01T06:45:17;15.45;;;8.45;;
51006;SDS011;37034;47.886;-3.904;2022-09-01T06:47:45;16.75;;;7.93;;
51006;SDS011;37034;47.886;-3.904;2022-09-01T06:50:13;16.85;;;7.40;;
51006;SDS011;37034;47.886;-3.904;2022-09-01T06:52:41;16.10;;;7.30;;
51006;SDS011;37034;47.886;-3.904;2022-09-01T06:55:08;16.63;;;7.90;;
51006;SDS011;37034;47.886;-3.904;2022-09-01T06:57:35;14.52;;;7.53;;
51006;SDS011;37034;47.886;-3.904;2022-09-01T07:00:03;17.08;;;8.00;;
51006;SDS011;37034;47.886;-3.904;2022-09-01T07:02:41;14.88;;;7.47;;
51006;SDS011;37034;47.886;-3.904;2022-09-01T07:05:11;17.38;;;7.78;;
51006;SDS011;37034;47.886;-3.904;2022-09-01T07:07:51;16.90;;;8.48;;
51006;SDS011;37034;47.886;-3.904;2022-09-01T07:10:26;17.67;;;7.85;;
51006;SDS011;37034;47.886;-3.904;2022-09-01T07:12:52;14.48;;;8.27;;
51006;SDS011;37034;47.886;-3.904;2022-09-01T07:15:20;19.00;;;8.60;;
51006;SDS011;37034;47.886;-3.904;2022-09-01T07:17:50;15.05;;;7.40;;
51006;SDS011;37034;47.886;-3.904;2022-09-01T07:20:22;14.95;;;8.07;;
51006;SDS011;37034;47.886;-3.904;2022-09-01T07:22:51;15.85;;;7.20;;
51006;SDS011;37034;47.886;-3.904;2022-09-01T07:25:18;15.95;;;7.35;;
51006;SDS011;37034;47.886;-3.904;2022-09-01T07:27:44;17.65;;;7.30;;
51006;SDS011;37034;47.886;-3.904;2022-09-01T07:30:17;14.50;;;7.25;;
51006;SDS011;37034;47.886;-3.904;2022-09-01T07:32:47;16.67;;;7.45;;
51006;SDS011;37034;47.886;-3.904;2022-09-01T07:35:16;18.65;;;7.50;;
51006;SDS011;37034;47.886;-3.904;2022-09-01T07:37:43;13.48;;;7.22;;
51006;SDS011;37034;47.886;-3.904;2022-09-01T07:40:13;17.00;;;6.88;;
51006;SDS011;37034;47.886;-3.904;2022-09-01T07:42:43;13.50;;;7.18;;
51006;SDS011;37034;47.886;-3.904;2022-09-01T07:45:10;15.07;;;7.05;;
51006;SDS011;37034;47.886;-3.904;2022-09-01T07:47:36;16.10;;;7.00;;
51006;SDS011;37034;47.886;-3.904;2022-09-01T07:50:06;13.88;;;6.45;;
51006;SDS011;37034;47.886;-3.904;2022-09-01T07:52:34;14.18;;;7.18;;
51006;SDS011;37034;47.886;-3.904;2022-09-01T07:55:06;13.38;;;7.13;;
51006;SDS011;37034;47.886;-3.904;2022-09-01T07:57:40;12.43;;;6.60;;
51006;SDS011;37034;47.886;-3.904;2022-09-01T08:00:07;13.40;;;6.50;;
51006;SDS011;37034;47.886;-3.904;2022-09-01T08:02:35;11.35;;;6.13;;
51006;SDS011;37034;47.886;-3.904;2022-09-01T08:05:04;13.57;;;6.50;;
51006;SDS011;37034;47.886;-3.904;2022-09-01T08:07:36;11.90;;;5.82;;
51006;SDS011;37034;47.886;-3.904;2022-09-01T08:10:03;12.07;;;5.50;;
51006;SDS011;37034;47.886;-3.904;2022-09-01T08:12:30;17.67;;;5.55;;
51006;SDS011;37034;47.886;-3.904;2022-09-01T08:17:22;12.30;;;6.32;;
51006;SDS011;37034;47.886;-3.904;2022-09-01T08:19:48;13.88;;;6.10;;
51006;SDS011;37034;47.886;-3.904;2022-09-01T08:22:14;14.52;;;5.65;;
51006;SDS011;37034;47.886;-3.904;2022-09-01T08:24:41;11.20;;;5.25;;
51006;SDS011;37034;47.886;-3.904;2022-09-01T08:27:07;13.13;;;5.35;;
51006;SDS011;37034;47.886;-3.904;2022-09-01T08:29:33;13.57;;;5.93;;
51006;SDS011;37034;47.886;-3.904;2022-09-01T08:31:58;15.48;;;6.55;;
51006;SDS011;37034;47.886;-3.904;2022-09-01T08:34:25;15.93;;;6.00;;
51006;SDS011;37034;47.886;-3.904;2022-09-01T08:36:51;13.93;;;6.05;;
51006;SDS011;37034;47.886;-3.904;2022-09-01T08:39:17;12.70;;;6.22;;
51006;SDS011;37034;47.886;-3.904;2022-09-01T08:41:44;14.90;;;4.93;;
51006;SDS011;37034;47.886;-3.904;2022-09-01T08:46:53;13.63;;;5.50;;
51006;SDS011;37034;47.886;-3.904;2022-09-01T08:49:25;10.95;;;5.45;;
51006;SDS011;37034;47.886;-3.904;2022-09-01T08:51:53;13.30;;;4.90;;
51006;SDS011;37034;47.886;-3.904;2022-09-01T08:56:58;10.90;;;4.60;;
51006;SDS011;37034;47.886;-3.904;2022-09-01T08:59:27;11.18;;;4.53;;
51006;SDS011;37034;47.886;-3.904;2022-09-01T09:07:33;10.88;;;4.20;;
51006;SDS011;37034;47.886;-3.904;2022-09-01T09:10:11;11.43;;;4.78;;
51006;SDS011;37034;47.886;-3.904;2022-09-01T09:13:06;11.35;;;4.80;;
51006;SDS011;37034;47.886;-3.904;2022-09-01T09:15:39;14.50;;;5.28;;
51006;SDS011;37034;47.886;-3.904;2022-09-01T09:20:46;14.00;;;5.38;;
51006;SDS011;37034;47.886;-3.904;2022-09-01T09:23:30;12.35;;;5.65;;
51006;SDS011;37034;47.886;-3.904;2022-09-01T09:26:02;15.85;;;5.60;;
51006;SDS011;37034;47.886;-3.904;2022-09-01T09:28:27;17.52;;;5.25;;
51006;SDS011;37034;47.886;-3.904;2022-09-01T09:33:51;15.65;;;6.30;;
51006;SDS011;37034;47.886;-3.904;2022-09-01T09:38:44;16.65;;;6.10;;
51006;SDS011;37034;47.886;-3.904;2022-09-01T09:41:17;13.15;;;5.90;;
51006;SDS011;37034;47.886;-3.904;2022-09-01T09:43:46;13.07;;;5.47;;
51006;SDS011;37034;47.886;-3.904;2022-09-01T09:51:39;16.15;;;6.82;;
51006;SDS011;37034;47.886;-3.904;2022-09-01T09:56:43;14.80;;;7.20;;
51006;SDS011;37034;47.886;-3.904;2022-09-01T10:08:02;15.73;;;7.40;;
51006;SDS011;37034;47.886;-3.904;2022-09-01T10:10:36;14.63;;;6.72;;
51006;SDS011;37034;47.886;-3.904;2022-09-01T10:13:07;10.50;;;6.45;;
51006;SDS011;37034;47.886;-3.904;2022-09-01T10:15:35;12.80;;;7.13;;
51006;SDS011;37034;47.886;-3.904;2022-09-01T10:18:06;14.18;;;6.22;;
51006;SDS011;37034;47.886;-3.904;2022-09-01T10:20:38;9.45;;;5.65;;
51006;SDS011;37034;47.886;-3.904;2022-09-01T10:23:12;9.75;;;5.90;;
51006;SDS011;37034;47.886;-3.904;2022-09-01T10:25:37;14.50;;;6.88;;
51006;SDS011;37034;47.886;-3.904;2022-09-01T10:28:09;14.77;;;6.55;;
51006;SDS011;37034;47.886;-3.904;2022-09-01T10:30:38;11.30;;;6.88;;
51006;SDS011;37034;47.886;-3.904;2022-09-01T10:33:07;14.18;;;6.30;;
51006;SDS011;37034;47.886;-3.904;2022-09-01T10:35:35;12.05;;;7.00;;
51006;SDS011;37034;47.886;-3.904;2022-09-01T10:38:05;9.88;;;6.65;;
51006;SDS011;37034;47.886;-3.904;2022-09-01T10:40:35;14.35;;;6.68;;
51006;SDS011;37034;47.886;-3.904;2022-09-01T10:45:51;12.63;;;6.57;;
51006;SDS011;37034;47.886;-3.904;2022-09-01T10:50:48;16.85;;;6.75;;
51006;SDS011;37034;47.886;-3.904;2022-09-01T11:04:04;12.93;;;6.45;;
51006;SDS011;37034;47.886;-3.904;2022-09-01T11:09:06;10.20;;;4.88;;
51006;SDS011;37034;47.886;-3.904;2022-09-01T11:14:19;13.20;;;5.55;;
51006;SDS011;37034;47.886;-3.904;2022-09-01T11:25:07;11.98;;;5.72;;
51006;SDS011;37034;47.886;-3.904;2022-09-01T11:27:55;14.32;;;5.60;;
51006;SDS011;37034;47.886;-3.904;2022-09-01T11:32:57;12.18;;;5.45;;
51006;SDS011;37034;47.886;-3.904;2022-09-01T11:35:42;8.77;;;5.28;;
51006;SDS011;37034;47.886;-3.904;2022-09-01T11:38:11;13.73;;;6.70;;
51006;SDS011;37034;47.886;-3.904;2022-09-01T11:40:40;13.02;;;5.53;;
51006;SDS011;37034;47.886;-3.904;2022-09-01T11:43:08;11.75;;;5.43;;
51006;SDS011;37034;47.886;-3.904;2022-09-01T11:48:45;12.15;;;5.07;;
51006;SDS011;37034;47.886;-3.904;2022-09-01T11:51:12;6.90;;;4.30;;
51006;SDS011;37034;47.886;-3.904;2022-09-01T11:53:38;11.75;;;4.93;;
51006;SDS011;37034;47.886;-3.904;2022-09-01T11:56:15;9.77;;;4.40;;
51006;SDS011;37034;47.886;-3.904;2022-09-01T11:58:44;9.73;;;4.30;;
51006;SDS011;37034;47.886;-3.904;2022-09-01T12:03:38;10.05;;;4.70;;
51006;SDS011;37034;47.886;-3.904;2022-09-01T12:06:05;13.38;;;4.68;;
51006;SDS011;37034;47.886;-3.904;2022-09-01T12:08:34;14.00;;;5.05;;
51006;SDS011;37034;47.886;-3.904;2022-09-01T12:11:04;16.10;;;5.18;;
51006;SDS011;37034;47.886;-3.904;2022-09-01T12:13:42;9.48;;;3.60;;
51006;SDS011;37034;47.886;-3.904;2022-09-01T12:16:29;16.08;;;5.13;;
51006;SDS011;37034;47.886;-3.904;2022-09-01T12:18:58;11.00;;;5.13;;
51006;SDS011;37034;47.886;-3.904;2022-09-01T12:21:26;7.78;;;3.70;;
51006;SDS011;37034;47.886;-3.904;2022-09-01T12:26:43;11.30;;;4.25;;
51006;SDS011;37034;47.886;-3.904;2022-09-01T12:29:10;10.00;;;3.40;;
51006;SDS011;37034;47.886;-3.904;2022-09-01T12:31:38;9.43;;;4.53;;
51006;SDS011;37034;47.886;-3.904;2022-09-01T12:34:22;12.32;;;4.38;;
51006;SDS011;37034;47.886;-3.904;2022-09-01T12:39:40;9.75;;;5.10;;
51006;SDS011;37034;47.886;-3.904;2022-09-01T12:44:45;9.10;;;4.22;;
51006;SDS011;37034;47.886;-3.904;2022-09-01T12:52:31;13.82;;;4.88;;
51006;SDS011;37034;47.886;-3.904;2022-09-01T13:02:45;8.95;;;4.53;;
51006;SDS011;37034;47.886;-3.904;2022-09-01T13:07:55;11.77;;;4.60;;
51006;SDS011;37034;47.886;-3.904;2022-09-01T13:10:23;12.48;;;3.70;;
51006;SDS011;37034;47.886;-3.904;2022-09-01T13:12:52;14.43;;;4.63;;
51006;SDS011;37034;47.886;-3.904;2022-09-01T13:15:18;10.20;;;3.80;;
51006;SDS011;37034;47.886;-3.904;2022-09-01T13:17:45;11.75;;;4.07;;
51006;SDS011;37034;47.886;-3.904;2022-09-01T13:20:11;9.93;;;4.25;;
51006;SDS011;37034;47.886;-3.904;2022-09-01T13:22:38;9.05;;;3.90;;
51006;SDS011;37034;47.886;-3.904;2022-09-01T13:25:05;7.93;;;3.72;;
51006;SDS011;37034;47.886;-3.904;2022-09-01T13:27:33;10.90;;;4.55;;
51006;SDS011;37034;47.886;-3.904;2022-09-01T13:29:59;10.75;;;4.10;;
51006;SDS011;37034;47.886;-3.904;2022-09-01T13:32:25;12.77;;;3.92;;
51006;SDS011;37034;47.886;-3.904;2022-09-01T13:34:51;10.55;;;4.20;;
51006;SDS011;37034;47.886;-3.904;2022-09-01T13:37:18;11.20;;;4.07;;
51006;SDS011;37034;47.886;-3.904;2022-09-01T13:39:44;11.68;;;4.38;;
51006;SDS011;37034;47.886;-3.904;2022-09-01T13:42:11;17.13;;;5.28;;
51006;SDS011;37034;47.886;-3.904;2022-09-01T13:44:37;13.75;;;4.78;;
51006;SDS011;37034;47.886;-3.904;2022-09-01T13:47:03;14.65;;;5.18;;
51006;SDS011;37034;47.886;-3.904;2022-09-01T13:49:29;10.48;;;4.63;;
51006;SDS011;37034;47.886;-3.904;2022-09-01T13:51:55;15.93;;;4.53;;
51006;SDS011;37034;47.886;-3.904;2022-09-01T13:54:21;12.30;;;4.13;;
51006;SDS011;37034;47.886;-3.904;2022-09-01T13:56:46;9.88;;;4.13;;
51006;SDS011;37034;47.886;-3.904;2022-09-01T13:59:12;11.20;;;3.40;;
51006;SDS011;37034;47.886;-3.904;2022-09-01T14:01:38;11.68;;;2.83;;
51006;SDS011;37034;47.886;-3.904;2022-09-01T14:04:06;7.25;;;3.78;;
51006;SDS011;37034;47.886;-3.904;2022-09-01T14:06:37;8.73;;;2.85;;
51006;SDS011;37034;47.886;-3.904;2022-09-01T14:09:04;9.70;;;3.00;;
51006;SDS011;37034;47.886;-3.904;2022-09-01T14:11:29;8.63;;;2.70;;
51006;SDS011;37034;47.886;-3.904;2022-09-01T14:13:55;8.68;;;2.80;;
51006;SDS011;37034;47.886;-3.904;2022-09-01T14:16:21;7.30;;;2.67;;
51006;SDS011;37034;47.886;-3.904;2022-09-01T14:18:47;7.03;;;2.72;;
51006;SDS011;37034;47.886;-3.904;2022-09-01T14:21:13;7.88;;;3.05;;
51006;SDS011;37034;47.886;-3.904;2022-09-01T14:23:43;10.38;;;2.95;;
51006;SDS011;37034;47.886;-3.904;2022-09-01T14:26:10;11.88;;;2.80;;
51006;SDS011;37034;47.886;-3.904;2022-09-01T14:28:38;6.38;;;2.13;;
51006;SDS011;37034;47.886;-3.904;2022-09-01T14:31:08;5.78;;;2.03;;
51006;SDS011;37034;47.886;-3.904;2022-09-01T14:33:34;8.85;;;2.30;;
51006;SDS011;37034;47.886;-3.904;2022-09-01T14:36:01;7.97;;;2.50;;
51006;SDS011;37034;47.886;-3.904;2022-09-01T14:40:52;9.35;;;2.50;;
51006;SDS011;37034;47.886;-3.904;2022-09-01T14:43:18;8.85;;;2.30;;
51006;SDS011;37034;47.886;-3.904;2022-09-01T14:45:46;5.93;;;2.00;;
51006;SDS011;37034;47.886;-3.904;2022-09-01T14:48:13;5.68;;;2.03;;
51006;SDS011;37034;47.886;-3.904;2022-09-01T14:50:41;9.93;;;2.45;;
51006;SDS011;37034;47.886;-3.904;2022-09-01T14:53:08;8.70;;;2.33;;
51006;SDS011;37034;47.886;-3.904;2022-09-01T14:55:34;8.45;;;2.13;;
51006;SDS011;37034;47.886;-3.904;2022-09-01T14:58:00;10.40;;;2.88;;
51006;SDS011;37034;47.886;-3.904;2022-09-01T15:00:26;6.45;;;2.88;;
51006;SDS011;37034;47.886;-3.904;2022-09-01T15:02:53;6.97;;;2.97;;
51006;SDS011;37034;47.886;-3.904;2022-09-01T15:05:19;11.15;;;3.28;;
51006;SDS011;37034;47.886;-3.904;2022-09-01T15:07:45;7.60;;;2.80;;
51006;SDS011;37034;47.886;-3.904;2022-09-01T15:12:39;9.77;;;3.08;;
51006;SDS011;37034;47.886;-3.904;2022-09-01T15:15:06;10.70;;;2.47;;
51006;SDS011;37034;47.886;-3.904;2022-09-01T15:17:33;10.75;;;2.53;;
51006;SDS011;37034;47.886;-3.904;2022-09-01T15:20:00;10.75;;;2.65;;
51006;SDS011;37034;47.886;-3.904;2022-09-01T15:22:47;11.07;;;2.20;;
51006;SDS011;37034;47.886;-3.904;2022-09-01T15:25:14;9.95;;;2.13;;
51006;SDS011;37034;47.886;-3.904;2022-09-01T15:27:40;10.32;;;2.20;;
51006;SDS011;37034;47.886;-3.904;2022-09-01T15:30:07;7.97;;;2.35;;
51006;SDS011;37034;47.886;-3.904;2022-09-01T15:32:39;9.80;;;2.13;;
51006;SDS011;37034;47.886;-3.904;2022-09-01T15:35:11;10.50;;;2.40;;
51006;SDS011;37034;47.886;-3.904;2022-09-01T15:37:38;12.90;;;2.55;;
51006;SDS011;37034;47.886;-3.904;2022-09-01T15:40:04;14.05;;;2.90;;
51006;SDS011;37034;47.886;-3.904;2022-09-01T15:42:32;11.38;;;2.70;;
51006;SDS011;37034;47.886;-3.904;2022-09-01T15:45:00;14.40;;;2.97;;
51006;SDS011;37034;47.886;-3.904;2022-09-01T15:47:29;12.02;;;2.58;;
51006;SDS011;37034;47.886;-3.904;2022-09-01T15:49:55;12.85;;;2.60;;
51006;SDS011;37034;47.886;-3.904;2022-09-01T15:52:21;17.38;;;3.13;;
51006;SDS011;37034;47.886;-3.904;2022-09-01T15:54:47;13.40;;;2.90;;
51006;SDS011;37034;47.886;-3.904;2022-09-01T15:57:12;15.35;;;3.33;;
51006;SDS011;37034;47.886;-3.904;2022-09-01T15:59:38;14.38;;;3.00;;
51006;SDS011;37034;47.886;-3.904;2022-09-01T16:02:06;14.35;;;3.30;;
51006;SDS011;37034;47.886;-3.904;2022-09-01T16:04:32;9.35;;;2.75;;
51006;SDS011;37034;47.886;-3.904;2022-09-01T16:06:58;10.93;;;2.72;;
51006;SDS011;37034;47.886;-3.904;2022-09-01T16:09:24;12.48;;;2.83;;
51006;SDS011;37034;47.886;-3.904;2022-09-01T16:11:51;10.80;;;2.88;;
51006;SDS011;37034;47.886;-3.904;2022-09-01T16:14:17;12.43;;;3.33;;
51006;SDS011;37034;47.886;-3.904;2022-09-01T16:20:00;10.27;;;2.92;;
51006;SDS011;37034;47.886;-3.904;2022-09-01T16:22:32;8.48;;;2.08;;
51006;SDS011;37034;47.886;-3.904;2022-09-01T16:25:03;11.52;;;2.92;;
51006;SDS011;37034;47.886;-3.904;2022-09-01T16:27:39;11.77;;;2.35;;
51006;SDS011;37034;47.886;-3.904;2022-09-01T16:30:07;9.32;;;2.00;;
51006;SDS011;37034;47.886;-3.904;2022-09-01T16:32:36;6.60;;;1.90;;
51006;SDS011;37034;47.886;-3.904;2022-09-01T16:35:08;9.65;;;2.10;;